Time;durP1;ratioP1;P1;durP2;ratioP2;P2;SDS_P1;SDS_P2;PMS_P1;PMS_P2;Temp;Humidity;BMP_temperature;BMP_pressure;BME280_temperature;BME280_humidity;BME280_pressure;Samples;Min_cycle;Max_cycle;Signal;HPM_P1;HPM_P2
2022/05/22 00:00:16;;;;;;;;;6.25;5.50;;;;;21.32;49.26;101030.44;5050985;28;45755;-83
2022/05/22 00:02:43;;;;;;;;;6.00;6.00;;;;;21.31;48.94;101030.63;5051814;28;45983;-78
2022/05/22 00:05:15;;;;;;;;;8.75;7.00;;;;;21.27;49.33;101023.97;5051233;28;45988;-81
2022/05/22 00:07:40;;;;;;;;;7.00;6.00;;;;;21.24;49.41;101016.31;5049545;28;45589;-80
2022/05/22 00:10:06;;;;;;;;;6.00;5.00;;;;;21.23;49.81;101025.31;5051857;28;45792;-81
2022/05/22 00:12:31;;;;;;;;;7.00;6.25;;;;;21.24;49.79;101024.31;5050940;28;46513;-82
2022/05/22 00:14:57;;;;;;;;;5.50;4.75;;;;;21.20;49.64;101020.31;5044875;28;46098;-79
2022/05/22 00:17:22;;;;;;;;;7.00;6.50;;;;;21.17;49.75;101025.97;5051321;28;45691;-80
2022/05/22 00:19:48;;;;;;;;;6.25;6.00;;;;;21.16;49.70;101040.31;5033305;28;45933;-79
2022/05/22 00:22:13;;;;;;;;;6.50;5.50;;;;;21.09;49.86;101016.13;5051806;28;45739;-79
2022/05/22 00:24:39;;;;;;;;;7.50;5.25;;;;;21.14;50.05;101021.81;5050929;28;45815;-81
2022/05/22 00:27:06;;;;;;;;;8.00;6.00;;;;;21.02;50.31;100999.13;5051299;28;45819;-82
2022/05/22 00:29:32;;;;;;;;;7.50;6.25;;;;;21.06;50.15;101007.63;5051432;28;45574;-81
2022/05/22 00:31:58;;;;;;;;;6.75;5.75;;;;;21.06;49.73;101016.44;5044102;28;46585;-80
2022/05/22 00:34:23;;;;;;;;;6.00;5.00;;;;;21.06;49.91;101026.28;5050894;28;46125;-81
2022/05/22 00:36:49;;;;;;;;;5.50;5.50;;;;;21.00;50.43;101019.78;5050014;28;46299;-80
2022/05/22 00:39:14;;;;;;;;;6.75;5.25;;;;;20.89;50.62;101001.47;5051391;28;45974;-82
2022/05/22 00:41:40;;;;;;;;;5.75;4.75;;;;;20.96;50.39;101015.78;5051561;28;45815;-81
2022/05/22 00:44:07;;;;;;;;;4.00;4.00;;;;;20.88;50.28;100999.81;5050549;28;46374;-80
2022/05/22 00:46:33;;;;;;;;;4.50;4.50;;;;;20.83;50.31;100986.16;5042698;28;45726;-79
2022/05/22 00:49:27;;;;;;;;;7.25;5.75;;;;;20.85;50.36;100995.63;5046872;28;45677;-79
2022/05/22 00:51:58;;;;;;;;;6.00;6.00;;;;;20.87;50.55;101001.66;5051216;28;46487;-80
2022/05/22 00:54:33;;;;;;;;;5.50;4.50;;;;;20.80;50.61;100984.66;5051265;28;45854;-81
2022/05/22 00:57:09;;;;;;;;;8.00;7.00;;;;;20.74;50.69;100977.31;5053182;28;45843;-82
2022/05/22 00:59:39;;;;;;;;;7.50;7.25;;;;;20.76;50.60;100986.00;5033724;28;46199;-80
2022/05/22 01:02:06;;;;;;;;;7.75;6.75;;;;;20.74;51.02;100984.47;5051258;28;45690;-82
2022/05/22 01:04:35;;;;;;;;;6.75;6.75;;;;;20.72;51.19;100975.84;5051143;28;45888;-79
2022/05/22 01:07:05;;;;;;;;;6.50;6.50;;;;;20.70;51.63;100968.00;5052050;28;45698;-83
2022/05/22 01:09:31;;;;;;;;;8.00;6.00;;;;;20.65;51.18;100964.16;5053120;28;45647;-80
2022/05/22 01:12:04;;;;;;;;;7.75;6.25;;;;;20.65;51.42;100967.66;5057162;28;45905;-84
2022/05/22 01:14:33;;;;;;;;;6.75;6.00;;;;;20.57;51.42;100949.00;5056962;28;45974;-84
2022/05/22 01:17:08;;;;;;;;;5.50;4.50;;;;;20.59;51.65;100951.50;5038272;28;46003;-83
2022/05/22 01:19:33;;;;;;;;;6.00;6.00;;;;;20.59;51.28;100952.34;5036623;28;45963;-79
2022/05/22 01:22:01;;;;;;;;;6.75;5.00;;;;;20.55;51.57;100953.69;5053529;28;45573;-79
2022/05/22 01:24:27;;;;;;;;;6.75;6.50;;;;;20.48;51.55;100950.84;5035617;28;48050;-81
2022/05/22 01:26:56;;;;;;;;;6.25;5.25;;;;;20.52;51.71;100951.34;5053639;28;45773;-82
2022/05/22 01:29:22;;;;;;;;;5.75;5.75;;;;;20.41;51.56;100938.34;5054688;28;45555;-83
2022/05/22 01:31:47;;;;;;;;;5.25;5.25;;;;;20.52;51.56;100946.00;5054010;28;46508;-84
2022/05/22 01:34:13;;;;;;;;;7.00;5.75;;;;;20.51;51.30;100945.16;5040565;28;48014;-81
2022/05/22 01:36:39;;;;;;;;;7.50;6.50;;;;;20.53;51.77;100948.50;5052507;28;45762;-83
2022/05/22 01:39:05;;;;;;;;;7.00;6.00;;;;;20.45;51.83;100927.22;5056648;28;45656;-82
2022/05/22 01:41:30;;;;;;;;;5.50;5.25;;;;;20.49;51.90;100938.38;5052385;28;46630;-85
2022/05/22 01:43:56;;;;;;;;;6.25;6.25;;;;;20.46;51.93;100936.03;5052638;28;46093;-85
2022/05/22 01:46:21;;;;;;;;;5.00;5.00;;;;;20.50;51.28;100945.38;5056065;28;45529;-83
2022/05/22 01:48:47;;;;;;;;;7.50;6.25;;;;;20.39;51.60;100932.38;5057996;28;45715;-85
2022/05/22 01:51:12;;;;;;;;;5.75;4.50;;;;;20.48;51.58;100942.03;5054888;28;45680;-85
2022/05/22 01:53:38;;;;;;;;;5.75;5.00;;;;;20.42;51.45;100930.19;5054444;28;45699;-85
2022/05/22 01:56:03;;;;;;;;;5.25;5.25;;;;;20.52;51.63;100944.19;5052621;28;46107;-84
2022/05/22 01:58:29;;;;;;;;;5.25;5.25;;;;;20.54;51.79;100944.03;5054281;28;45644;-80
2022/05/22 02:00:55;;;;;;;;;3.75;3.50;;;;;20.55;51.27;100940.38;5051467;28;46037;-82
2022/05/22 02:03:20;;;;;;;;;4.00;4.00;;;;;20.44;51.10;100916.72;5053912;28;45609;-83
2022/05/22 02:05:46;;;;;;;;;4.00;4.00;;;;;20.55;51.27;100931.56;5053814;28;46045;-83
2022/05/22 02:08:24;;;;;;;;;4.25;3.50;;;;;20.56;50.83;100933.22;5051271;28;45689;-82
2022/05/22 02:10:56;;;;;;;;;4.50;4.00;;;;;20.58;51.02;100940.03;5053896;28;46113;-84
2022/05/22 02:13:25;;;;;;;;;3.50;3.50;;;;;20.59;50.87;100928.38;5046042;28;46372;-78
2022/05/22 02:15:51;;;;;;;;;4.50;4.00;;;;;20.59;50.71;100931.03;5053516;28;45728;-80
2022/05/22 02:18:17;;;;;;;;;4.00;4.00;;;;;20.59;50.70;100936.38;5053003;28;45657;-82
2022/05/22 02:20:44;;;;;;;;;4.00;3.75;;;;;20.63;50.91;100943.03;5053310;28;47731;-80
2022/05/22 02:23:10;;;;;;;;;3.75;3.00;;;;;20.64;50.46;100943.84;5052652;28;46053;-80
2022/05/22 02:25:42;;;;;;;;;2.25;1.75;;;;;20.55;50.52;100929.72;5053209;28;45709;-75
2022/05/22 02:28:08;;;;;;;;;4.25;4.00;;;;;20.54;50.51;100922.72;5053032;28;45722;-80
2022/05/22 02:30:38;;;;;;;;;3.75;3.50;;;;;20.64;50.46;100933.22;5053296;28;46632;-82
2022/05/22 02:33:04;;;;;;;;;2.75;2.75;;;;;20.63;50.25;100927.03;5049506;28;46101;-79
2022/05/22 02:35:30;;;;;;;;;4.25;3.50;;;;;20.60;50.44;100927.41;5039453;28;45800;-79
2022/05/22 02:37:56;;;;;;;;;3.25;3.25;;;;;20.63;50.23;100931.53;5050106;28;46190;-78
2022/05/22 02:40:25;;;;;;;;;4.25;3.00;;;;;20.61;50.09;100934.38;5053215;28;45695;-80
2022/05/22 02:42:52;;;;;;;;;3.25;3.25;;;;;20.60;50.25;100935.38;5052633;28;46502;-79
2022/05/22 02:45:24;;;;;;;;;4.00;4.00;;;;;20.56;50.12;100938.53;5053080;28;45461;-81
2022/05/22 02:47:50;;;;;;;;;4.00;4.00;;;;;20.58;50.06;100949.84;5052333;28;45637;-80
2022/05/22 02:50:21;;;;;;;;;5.00;4.00;;;;;20.59;50.35;100962.16;5034822;28;48595;-78
2022/05/22 02:52:47;;;;;;;;;3.00;2.50;;;;;20.45;50.11;100937.88;5051688;28;46049;-82
2022/05/22 02:55:12;;;;;;;;;4.00;4.00;;;;;20.52;50.26;100954.00;5051917;28;45608;-81
2022/05/22 02:57:40;;;;;;;;;1.25;1.25;;;;;20.51;50.30;100947.84;5052813;28;45747;-79
2022/05/22 03:00:18;;;;;;;;;4.00;4.00;;;;;20.58;49.96;100958.66;5053003;28;46541;-81
2022/05/22 03:02:43;;;;;;;;;3.75;3.00;;;;;20.58;49.80;100956.00;5040521;28;46252;-77
2022/05/22 03:05:09;;;;;;;;;5.00;4.00;;;;;20.59;50.02;100956.84;5053728;28;45621;-83
2022/05/22 03:07:36;;;;;;;;;3.25;3.00;;;;;20.56;50.06;100954.53;5042723;28;45863;-80
2022/05/22 03:10:07;;;;;;;;;2.75;2.00;;;;;20.58;49.91;100956.00;5061460;28;45569;-84
2022/05/22 03:12:35;;;;;;;;;3.75;3.00;;;;;20.51;49.99;100945.16;5055323;28;46478;-80
2022/05/22 03:15:01;;;;;;;;;3.25;3.25;;;;;20.57;50.12;100951.66;5052020;28;45785;-83
2022/05/22 03:17:26;;;;;;;;;3.25;3.25;;;;;20.55;49.61;100951.03;5051980;28;45562;-82
2022/05/22 03:19:52;;;;;;;;;6.00;4.00;;;;;20.57;49.83;100941.03;5052325;28;45770;-83
2022/05/22 03:22:18;;;;;;;;;2.00;2.00;;;;;20.53;49.95;100926.38;5052213;28;46288;-81
2022/05/22 03:24:44;;;;;;;;;2.50;2.50;;;;;20.53;49.82;100921.06;5051278;28;46143;-87
2022/05/22 03:27:13;;;;;;;;;3.25;3.00;;;;;20.46;49.70;100904.91;5052477;28;45753;-82
2022/05/22 03:29:40;;;;;;;;;2.00;2.00;;;;;20.43;49.75;100891.94;5052697;28;46488;-82
2022/05/22 03:32:07;;;;;;;;;3.00;2.25;;;;;20.53;49.75;100900.59;5052466;28;45966;-79
2022/05/22 03:34:33;;;;;;;;;5.00;4.25;;;;;20.52;49.55;100900.75;5046774;28;45768;-82
2022/05/22 03:36:58;;;;;;;;;4.00;3.00;;;;;20.41;49.81;100888.59;5052994;28;46733;-82
2022/05/22 03:39:24;;;;;;;;;3.50;3.50;;;;;20.41;49.69;100885.94;5048002;28;46743;-82
2022/05/22 03:41:50;;;;;;;;;3.00;3.00;;;;;20.47;49.77;100900.41;5034905;28;47481;-84
2022/05/22 03:44:15;;;;;;;;;2.25;2.25;;;;;20.37;49.67;100895.25;5053328;28;45716;-82
2022/05/22 03:46:41;;;;;;;;;3.75;3.50;;;;;20.37;49.76;100900.59;5052924;28;45659;-84
2022/05/22 03:49:07;;;;;;;;;5.00;3.75;;;;;20.38;49.89;100899.59;5052528;28;46706;-83
2022/05/22 03:51:34;;;;;;;;;3.00;3.00;;;;;20.37;49.63;100911.22;5052892;28;45969;-82
2022/05/22 03:54:00;;;;;;;;;5.25;4.00;;;;;20.37;49.57;100902.41;5052569;28;46097;-81
2022/05/22 03:56:26;;;;;;;;;4.00;4.00;;;;;20.35;49.85;100899.91;5033914;28;45899;-83
2022/05/22 03:58:51;;;;;;;;;5.75;4.25;;;;;20.29;49.82;100884.59;5051964;28;46506;-83
2022/05/22 04:01:17;;;;;;;;;5.25;4.00;;;;;20.26;49.90;100890.22;5052209;28;45754;-82
2022/05/22 04:03:42;;;;;;;;;3.00;3.00;;;;;20.24;49.81;100886.91;5051700;28;45683;-79
2022/05/22 04:06:10;;;;;;;;;2.75;2.75;;;;;20.29;49.94;100881.09;5051611;28;45629;-83
2022/05/22 04:08:35;;;;;;;;;2.25;2.25;;;;;20.20;49.73;100861.63;5048682;28;45620;-81
2022/05/22 04:11:10;;;;;;;;;4.75;3.50;;;;;20.30;49.96;100872.94;5047653;28;45551;-82
2022/05/22 04:13:36;;;;;;;;;5.50;4.00;;;;;20.22;49.53;100861.47;5043070;28;45652;-80
2022/05/22 04:16:02;;;;;;;;;2.75;2.75;;;;;20.20;49.99;100848.31;5052154;28;45553;-81
2022/05/22 04:18:27;;;;;;;;;4.00;4.00;;;;;20.30;49.89;100866.78;5046563;28;46746;-84
2022/05/22 04:20:53;;;;;;;;;1.75;1.75;;;;;20.23;49.80;100855.16;5051597;28;45558;-85
2022/05/22 04:26:04;;;;;;;;;4.50;3.75;;;;;20.30;49.78;100883.56;5051934;28;46153;-83
2022/05/22 04:28:31;;;;;;;;;3.00;3.00;;;;;20.29;49.81;100865.13;5051744;28;46733;-83
2022/05/22 04:30:57;;;;;;;;;2.75;2.75;;;;;20.30;49.82;100878.25;5051358;28;46041;-85
2022/05/22 04:33:23;;;;;;;;;4.00;4.00;;;;;20.29;49.51;100873.94;5026794;28;45832;-77
2022/05/22 04:35:49;;;;;;;;;4.00;4.00;;;;;20.16;49.53;100854.13;5037929;28;46175;-84
2022/05/22 04:38:14;;;;;;;;;4.00;4.00;;;;;20.21;49.59;100876.59;5050686;28;45701;-82
2022/05/22 04:40:41;;;;;;;;;2.25;2.00;;;;;20.23;49.48;100884.41;5051783;28;46223;-85
2022/05/22 04:43:09;;;;;;;;;4.00;2.75;;;;;20.22;49.82;100874.75;5051086;28;45700;-83
2022/05/22 04:45:38;;;;;;;;;3.50;3.50;;;;;20.19;49.66;100880.44;5053818;28;45835;-84
2022/05/22 04:48:04;;;;;;;;;4.25;3.00;;;;;20.18;49.81;100876.94;5043476;28;45720;-80
2022/05/22 04:50:30;;;;;;;;;3.00;2.75;;;;;20.21;49.59;100891.72;5057793;28;46455;-84
2022/05/22 04:52:56;;;;;;;;;3.75;3.00;;;;;20.22;49.60;100890.72;5058961;28;45743;-84
2022/05/22 04:55:21;;;;;;;;;3.00;3.00;;;;;20.18;49.53;100879.59;5061139;28;45739;-83
2022/05/22 04:57:46;;;;;;;;;3.00;3.00;;;;;20.27;50.10;100889.25;5062304;28;45668;-84
2022/05/22 05:00:12;;;;;;;;;4.00;3.00;;;;;20.23;49.22;100885.25;5060423;28;46380;-83
2022/05/22 05:02:38;;;;;;;;;3.00;3.00;;;;;20.18;49.45;100873.44;5045703;28;45625;-83
2022/05/22 05:05:05;;;;;;;;;3.00;3.00;;;;;20.25;49.40;100890.38;5046032;28;45570;-84
2022/05/22 05:07:32;;;;;;;;;3.75;3.75;;;;;20.20;49.34;100882.06;5059078;28;45664;-83
2022/05/22 05:09:57;;;;;;;;;4.50;3.25;;;;;20.29;49.36;100902.38;5059259;28;46026;-80
2022/05/22 05:12:23;;;;;;;;;2.75;2.00;;;;;20.27;49.29;100896.38;5056580;28;45751;-83
2022/05/22 05:14:49;;;;;;;;;3.00;3.00;;;;;20.20;49.24;100882.91;5029608;28;46098;-83
2022/05/22 05:17:17;;;;;;;;;3.00;3.00;;;;;20.22;49.11;100891.56;5041187;28;45815;-83
2022/05/22 05:19:43;;;;;;;;;4.00;4.00;;;;;20.24;48.87;100886.91;5036466;28;48036;-84
2022/05/22 05:22:08;;;;;;;;;4.00;3.00;;;;;20.18;49.25;100879.59;5055007;28;45515;-84
2022/05/22 05:24:34;;;;;;;;;4.50;3.25;;;;;20.26;49.38;100894.72;5054099;28;45759;-80
2022/05/22 05:26:59;;;;;;;;;2.00;2.00;;;;;20.23;48.82;100879.09;5054326;28;46003;-83
2022/05/22 05:29:25;;;;;;;;;3.00;2.75;;;;;20.30;49.06;100896.03;5056097;28;45899;-83
2022/05/22 05:31:51;;;;;;;;;1.50;1.50;;;;;20.32;48.86;100902.06;5052653;28;45660;-81
2022/05/22 05:34:16;;;;;;;;;3.00;2.75;;;;;20.29;49.19;100902.38;5060833;28;45726;-83
2022/05/22 05:36:42;;;;;;;;;4.00;3.00;;;;;20.33;49.07;100904.59;5061879;28;46681;-83
2022/05/22 05:39:32;;;;;;;;;3.00;3.00;;;;;20.31;48.90;100905.69;5061349;28;46087;-85
2022/05/22 05:42:00;;;;;;;;;2.25;2.25;;;;;20.34;48.79;100903.59;5051985;28;45542;-84
2022/05/22 05:44:31;;;;;;;;;3.50;3.50;;;;;20.37;48.81;100913.06;5060408;28;45712;-83
2022/05/22 05:47:15;;;;;;;;;4.25;3.75;;;;;20.31;48.81;100892.38;5042597;28;47920;-83
2022/05/22 05:49:47;;;;;;;;;3.50;3.50;;;;;20.30;48.87;100898.69;5061756;28;46216;-84
2022/05/22 05:52:15;;;;;;;;;2.75;2.75;;;;;20.29;48.93;100889.09;5060762;28;45655;-80
2022/05/22 05:54:43;;;;;;;;;2.50;2.00;;;;;20.43;48.82;100909.75;5043370;28;45943;-83
2022/05/22 05:57:15;;;;;;;;;3.25;3.00;;;;;20.36;48.69;100884.78;5059010;28;45964;-84
2022/05/22 05:59:41;;;;;;;;;6.75;5.00;;;;;20.38;48.81;100882.78;5036299;28;47248;-81
2022/05/22 06:02:11;;;;;;;;;3.25;2.50;;;;;20.44;48.52;100874.97;5061283;28;45630;-83
2022/05/22 06:04:36;;;;;;;;;3.00;3.00;;;;;20.51;48.54;100870.63;5035432;28;46066;-83
2022/05/22 06:07:02;;;;;;;;;5.00;4.00;;;;;20.51;48.75;100864.50;5061064;28;45692;-81
2022/05/22 06:09:28;;;;;;;;;2.50;2.50;;;;;20.59;48.14;100877.78;5062026;28;45661;-81
2022/05/22 06:11:53;;;;;;;;;4.00;3.00;;;;;20.62;48.05;100877.44;5061571;28;45511;-82
2022/05/22 06:14:19;;;;;;;;;4.00;2.25;;;;;20.69;48.33;100875.78;5042636;28;45782;-81
2022/05/22 06:16:44;;;;;;;;;6.50;4.75;;;;;20.71;47.98;100870.31;5059350;28;46706;-82
2022/05/22 06:19:09;;;;;;;;;2.75;1.75;;;;;20.73;48.28;100852.34;5053086;28;45701;-82
2022/05/22 06:21:35;;;;;;;;;3.00;2.00;;;;;20.73;48.04;100833.69;5056006;28;45497;-80
2022/05/22 06:24:00;;;;;;;;;4.25;4.25;;;;;20.66;47.74;100814.91;5037231;28;45900;-81
2022/05/22 06:26:26;;;;;;;;;3.00;3.00;;;;;20.78;47.86;100836.69;5053703;28;45593;-85
2022/05/22 06:28:52;;;;;;;;;1.50;1.50;;;;;20.71;47.72;100828.53;5054537;28;45574;-83
2022/05/22 06:31:17;;;;;;;;;3.00;3.00;;;;;20.76;47.96;100823.53;5053872;28;45871;-84
2022/05/22 06:33:43;;;;;;;;;2.75;2.50;;;;;20.79;47.74;100817.84;5054500;28;45603;-78
2022/05/22 06:36:17;;;;;;;;;3.75;3.75;;;;;20.86;47.46;100818.00;5054219;28;45646;-82
2022/05/22 06:41:26;;;;;;;;;2.25;2.25;;;;;20.87;47.53;100791.22;5054677;28;45659;-81
2022/05/22 06:43:53;;;;;;;;;3.00;2.25;;;;;20.87;47.72;100785.88;5058407;28;45741;-79
2022/05/22 06:46:24;;;;;;;;;2.00;1.75;;;;;20.87;47.65;100788.53;5063373;28;45538;-79
2022/05/22 06:48:50;;;;;;;;;1.75;1.75;;;;;20.95;47.47;100798.31;5053176;28;45444;-78
2022/05/22 06:51:15;;;;;;;;;1.75;1.75;;;;;20.86;47.58;100783.38;5046366;28;45643;-80
2022/05/22 06:53:41;;;;;;;;;2.75;2.25;;;;;20.97;47.59;100795.50;5062636;28;45823;-83
2022/05/22 06:56:06;;;;;;;;;2.00;2.00;;;;;21.02;47.63;100801.13;5059812;28;46310;-86
2022/05/22 06:58:32;;;;;;;;;1.50;1.50;;;;;20.93;47.46;100782.53;5053674;28;45666;-80
2022/05/22 07:00:57;;;;;;;;;1.50;1.50;;;;;21.02;47.36;100799.31;5059265;28;45692;-81
2022/05/22 07:03:22;;;;;;;;;2.50;2.25;;;;;21.09;46.99;100816.28;5056240;28;45494;-84
2022/05/22 07:05:48;;;;;;;;;2.50;2.00;;;;;21.07;47.47;100807.63;5055835;28;46427;-82
2022/05/22 07:08:13;;;;;;;;;2.25;1.75;;;;;21.13;47.30;100822.91;5055415;28;45695;-84
2022/05/22 07:13:23;;;;;;;;;2.75;2.25;;;;;21.24;47.40;100801.25;5048392;28;45486;-81
2022/05/22 07:15:59;;;;;;;;;2.25;2.25;;;;;21.30;46.86;100789.06;5055403;28;46317;-81
2022/05/22 07:18:25;;;;;;;;;2.00;2.00;;;;;21.33;46.93;100813.53;5050892;28;45878;-81
2022/05/22 07:20:50;;;;;;;;;3.25;3.25;;;;;21.36;47.13;100823.03;5054808;28;45725;-85
2022/05/22 07:23:16;;;;;;;;;2.50;2.50;;;;;21.34;46.68;100795.72;5054606;28;45903;-82
2022/05/22 07:25:41;;;;;;;;;3.50;2.00;;;;;21.34;46.83;100771.72;5058382;28;46817;-83
2022/05/22 07:28:07;;;;;;;;;3.00;3.00;;;;;21.39;47.20;100768.53;5042060;28;47508;-84
2022/05/22 07:30:33;;;;;;;;;4.25;4.00;;;;;21.34;47.12;100753.91;5061493;28;45620;-83
2022/05/22 07:32:59;;;;;;;;;3.00;2.00;;;;;21.44;46.99;100766.16;5042354;28;46121;-84
2022/05/22 07:35:24;;;;;;;;;4.00;4.00;;;;;21.40;47.41;100771.03;5059407;28;45816;-84
2022/05/22 07:37:50;;;;;;;;;3.00;2.25;;;;;21.49;46.92;100796.63;5058239;28;45486;-81
2022/05/22 07:40:16;;;;;;;;;3.00;3.00;;;;;21.50;46.82;100805.47;5056230;28;45759;-84
2022/05/22 07:42:41;;;;;;;;;3.00;2.75;;;;;21.58;46.53;100805.44;5053964;28;45539;-83
2022/05/22 07:45:07;;;;;;;;;3.75;3.00;;;;;21.57;46.26;100803.75;5056139;28;46427;-85
2022/05/22 07:47:34;;;;;;;;;3.25;3.25;;;;;21.56;46.25;100794.94;5054884;28;46251;-83
2022/05/22 07:50:17;;;;;;;;;4.00;2.75;;;;;21.54;46.93;100761.47;5055147;28;45993;-85
2022/05/22 07:52:46;;;;;;;;;2.25;2.00;;;;;21.61;47.17;100763.22;5049807;28;45755;-84
2022/05/22 07:55:17;;;;;;;;;4.00;4.00;;;;;21.63;46.89;100758.56;5046944;28;45674;-80
2022/05/22 07:57:45;;;;;;;;;3.00;2.25;;;;;21.74;46.00;100778.66;5052195;28;45874;-81
2022/05/22 08:00:13;;;;;;;;;2.50;2.50;;;;;21.70;46.08;100762.16;5054704;28;45639;-79
2022/05/22 08:02:39;;;;;;;;;3.00;3.00;;;;;21.76;46.28;100761.44;5056484;28;45796;-82
2022/05/22 08:05:06;;;;;;;;;3.00;3.00;;;;;21.77;46.23;100757.78;5055785;28;46292;-82
2022/05/22 08:07:33;;;;;;;;;3.00;3.00;;;;;21.77;46.61;100741.78;5054625;28;45829;-85
2022/05/22 08:09:58;;;;;;;;;2.00;2.00;;;;;21.79;46.13;100741.59;5056232;28;45909;-80
2022/05/22 08:12:24;;;;;;;;;2.25;2.25;;;;;21.81;46.24;100738.78;5055699;28;45504;-83
2022/05/22 08:14:51;;;;;;;;;3.00;2.00;;;;;21.97;46.21;100760.81;5055472;28;46612;-83
2022/05/22 08:17:19;;;;;;;;;3.00;3.00;;;;;21.99;46.24;100745.47;5044484;28;46556;-83
2022/05/22 08:19:45;;;;;;;;;3.00;2.25;;;;;22.06;46.01;100732.25;5056779;28;46079;-82
2022/05/22 08:22:11;;;;;;;;;3.00;3.00;;;;;22.06;46.47;100705.56;5056420;28;45554;-84
2022/05/22 08:24:37;;;;;;;;;4.00;3.50;;;;;22.17;46.25;100697.13;5054105;28;45776;-84
2022/05/22 08:27:02;;;;;;;;;2.25;2.00;;;;;22.13;46.18;100677.16;5054671;28;45663;-85
2022/05/22 08:29:28;;;;;;;;;4.00;3.75;;;;;22.27;46.08;100703.00;5053460;28;45602;-83
2022/05/22 08:31:53;;;;;;;;;3.00;2.50;;;;;22.27;45.78;100702.19;5051784;28;46038;-81
2022/05/22 08:34:19;;;;;;;;;5.00;5.00;;;;;22.36;45.62;100709.91;5051708;28;45743;-84
2022/05/22 08:36:45;;;;;;;;;3.00;3.00;;;;;22.39;45.38;100706.91;5051715;28;45838;-85
2022/05/22 08:39:11;;;;;;;;;2.75;2.50;;;;;22.47;45.30;100716.66;5046286;28;45855;-85
2022/05/22 08:41:47;;;;;;;;;2.50;2.50;;;;;22.55;45.28;100714.72;5052066;28;45618;-85
2022/05/22 08:44:17;;;;;;;;;3.50;2.25;;;;;22.55;45.50;100703.22;5033146;28;47440;-85
2022/05/22 08:46:51;;;;;;;;;2.25;2.25;;;;;22.64;45.61;100710.13;5051506;28;46395;-85
2022/05/22 08:49:30;;;;;;;;;3.00;2.25;;;;;22.74;45.36;100715.19;5051035;28;45574;-85
2022/05/22 08:52:04;;;;;;;;;3.00;3.00;;;;;22.80;44.63;100719.81;5052073;28;45636;-86
2022/05/22 08:54:54;;;;;;;;;2.00;2.00;;;;;22.85;45.05;100718.25;5053473;28;46587;-85
2022/05/22 09:00:10;;;;;;;;;3.25;3.25;;;;;22.98;44.54;100721.09;5051665;28;45929;-86
2022/05/22 09:02:43;;;;;;;;;3.00;3.00;;;;;23.07;44.05;100713.78;5051794;28;45680;-79
2022/05/22 09:05:12;;;;;;;;;3.50;2.50;;;;;23.09;44.52;100701.06;5051615;28;46058;-84
2022/05/22 09:07:41;;;;;;;;;3.00;2.25;;;;;23.18;44.53;100702.59;5052473;28;45846;-84
2022/05/22 09:10:14;;;;;;;;;2.00;2.00;;;;;23.18;44.85;100689.25;5021918;28;45589;-82
2022/05/22 09:13:04;;;;;;;;;3.00;2.25;;;;;23.33;44.01;100695.38;5048731;28;45783;-84
2022/05/22 09:15:44;;;;;;;;;3.50;2.00;;;;;23.40;44.35;100690.09;5049428;28;45597;-84
2022/05/22 09:18:25;;;;;;;;;2.25;2.00;;;;;23.48;44.35;100689.19;5051228;28;45903;-83
2022/05/22 09:20:54;;;;;;;;;4.00;4.00;;;;;23.56;43.62;100689.03;5051541;28;46147;-83
2022/05/22 09:23:41;;;;;;;;;2.25;2.00;;;;;23.62;43.85;100690.97;5050652;28;45761;-81
2022/05/22 09:26:10;;;;;;;;;3.50;3.50;;;;;23.68;43.37;100688.34;5050538;28;46821;-83
2022/05/22 09:29:04;;;;;;;;;4.00;4.00;;;;;23.76;43.59;100684.69;5050988;28;46782;-82
2022/05/22 09:31:59;;;;;;;;;3.00;2.25;;;;;23.80;43.83;100664.56;5052007;28;45863;-83
2022/05/22 09:34:47;;;;;;;;;3.00;3.00;;;;;23.93;43.15;100671.88;5030652;28;45854;-83
2022/05/22 09:37:47;;;;;;;;;3.00;3.00;;;;;24.01;42.90;100677.09;5054245;28;46151;-82
2022/05/22 09:40:22;;;;;;;;;4.25;3.00;;;;;24.04;42.75;100665.97;5054803;28;45731;-82
2022/05/22 09:43:08;;;;;;;;;2.50;2.50;;;;;24.06;42.24;100651.38;5053836;28;45546;-84
2022/05/22 09:45:42;;;;;;;;;3.00;3.00;;;;;24.05;42.35;100648.91;5054552;28;45917;-83
2022/05/22 09:48:08;;;;;;;;;3.00;3.00;;;;;24.07;42.14;100655.72;5054412;28;46596;-82
2022/05/22 09:51:08;;;;;;;;;1.25;1.25;;;;;24.05;42.36;100640.88;5053479;28;46724;-80
2022/05/22 09:53:58;;;;;;;;;3.00;3.00;;;;;24.08;42.10;100627.91;5049976;28;45826;-83
2022/05/22 09:56:43;;;;;;;;;5.00;4.00;;;;;24.04;41.51;100609.75;5043520;28;45618;-85
2022/05/22 09:59:43;;;;;;;;;2.75;2.25;;;;;24.06;41.79;100626.47;5030472;28;48573;-84
2022/05/22 10:02:31;;;;;;;;;3.00;3.00;;;;;24.05;41.48;100612.25;5032134;28;48074;-82
2022/05/22 10:05:04;;;;;;;;;2.00;2.00;;;;;24.08;41.79;100598.44;5008305;28;45742;-77
2022/05/22 10:08:06;;;;;;;;;3.00;2.25;;;;;24.05;40.95;100573.94;5000918;28;45650;-80
2022/05/22 10:10:57;;;;;;;;;3.75;3.50;;;;;24.09;40.80;100575.19;5006973;28;47093;-81
2022/05/22 10:13:40;;;;;;;;;2.25;2.25;;;;;24.04;40.60;100575.78;4996779;28;46029;-83
2022/05/22 10:16:31;;;;;;;;;2.00;2.00;;;;;24.03;40.80;100584.84;5011166;28;45730;-85
2022/05/22 10:19:15;;;;;;;;;4.50;3.00;;;;;24.03;40.88;100598.22;4991673;28;45731;-82
2022/05/22 10:22:18;;;;;;;;;2.00;2.00;;;;;24.05;41.19;100598.84;4991978;28;47085;-82
2022/05/22 10:25:07;;;;;;;;;1.75;1.75;;;;;24.07;40.65;100587.97;4991800;28;46054;-83
2022/05/22 10:27:52;;;;;;;;;4.00;2.50;;;;;24.06;40.76;100556.84;4991362;28;45786;-82
2022/05/22 10:30:19;;;;;;;;;2.25;2.25;;;;;24.05;40.97;100565.91;5010359;28;45858;-85
2022/05/22 10:33:19;;;;;;;;;4.50;3.00;;;;;24.04;40.82;100550.88;5010611;28;47092;-81
2022/05/22 10:35:57;;;;;;;;;3.00;3.00;;;;;24.01;40.66;100545.91;4990704;28;45800;-84
2022/05/22 10:38:27;;;;;;;;;4.00;3.00;;;;;23.89;41.07;100518.06;4986899;28;45840;-83
2022/05/22 10:43:44;;;;;;;;;4.25;4.00;;;;;23.87;41.11;100507.53;5043021;28;45490;-83
2022/05/22 10:46:10;;;;;;;;;3.00;3.00;;;;;23.91;40.83;100514.16;5052080;28;45971;-80
2022/05/22 10:48:47;;;;;;;;;2.00;1.75;;;;;23.87;40.95;100496.00;5053725;28;45630;-82
2022/05/22 10:51:22;;;;;;;;;3.25;3.00;;;;;23.83;41.02;100476.84;5053938;28;45570;-83
2022/05/22 10:53:57;;;;;;;;;3.00;2.00;;;;;23.90;40.97;100488.41;5053319;28;46382;-82
2022/05/22 10:56:28;;;;;;;;;3.25;3.25;;;;;23.80;42.11;100477.25;5053190;28;45636;-83
2022/05/22 10:59:04;;;;;;;;;4.00;3.75;;;;;23.89;41.40;100483.25;5035674;28;45997;-84
2022/05/22 11:01:32;;;;;;;;;5.25;4.75;;;;;23.86;41.36;100484.47;5035905;28;45674;-82
2022/05/22 11:04:16;;;;;;;;;3.00;3.00;;;;;23.86;41.40;100491.69;5052914;28;46786;-84
2022/05/22 11:06:57;;;;;;;;;2.50;2.50;;;;;23.80;41.66;100490.63;5051056;28;46105;-84
2022/05/22 11:09:25;;;;;;;;;3.00;3.00;;;;;23.78;41.47;100498.03;5053558;28;45803;-80
2022/05/22 11:11:50;;;;;;;;;2.50;2.25;;;;;23.68;41.29;100487.69;5052963;28;45753;-80
2022/05/22 11:14:21;;;;;;;;;3.50;3.00;;;;;23.77;42.18;100509.75;5051965;28;46430;-83
2022/05/22 11:16:47;;;;;;;;;2.50;2.25;;;;;23.75;42.39;100511.81;5052455;28;46067;-85
2022/05/22 11:19:16;;;;;;;;;3.75;3.00;;;;;23.74;43.13;100510.16;5035956;28;46016;-84
2022/05/22 11:21:58;;;;;;;;;4.00;3.75;;;;;23.71;42.86;100510.53;5047638;28;45700;-81
2022/05/22 11:24:32;;;;;;;;;4.00;4.00;;;;;23.68;44.01;100511.75;5053094;28;46578;-85
2022/05/22 11:26:57;;;;;;;;;4.75;4.25;;;;;23.70;44.36;100509.69;5051171;28;46394;-84
2022/05/22 11:29:28;;;;;;;;;4.50;3.75;;;;;23.68;43.80;100501.06;5053707;28;45715;-82
2022/05/22 11:32:17;;;;;;;;;5.00;5.00;;;;;23.68;44.28;100503.75;5051726;28;46179;-79
2022/05/22 11:34:54;;;;;;;;;4.00;4.00;;;;;23.68;44.85;100505.59;5050771;28;46663;-84
2022/05/22 11:37:49;;;;;;;;;5.00;4.00;;;;;23.65;44.98;100500.59;5051925;28;45992;-84
2022/05/22 11:41:03;;;;;;;;;5.50;5.25;;;;;23.70;45.36;100516.91;4969592;28;45814;-85
2022/05/22 11:43:42;;;;;;;;;3.00;3.00;;;;;23.69;45.22;100504.56;4967981;28;45652;-78
2022/05/22 11:46:27;;;;;;;;;4.50;4.50;;;;;23.69;44.88;100501.88;4964373;28;45755;-83
2022/05/22 11:49:23;;;;;;;;;4.00;4.00;;;;;23.71;45.47;100505.19;4961212;28;45820;-82
2022/05/22 11:55:42;;;;;;;;;3.00;3.00;;;;;23.72;44.95;100498.81;4944775;28;45714;-83